createdAt,value
2017-12-29T07:00:02.637Z,993.18
2017-12-29T07:01:02.519Z,993.13
2017-12-29T07:02:55.479Z,993.06
2017-12-29T07:03:55.395Z,993.06
2017-12-29T07:05:48.302Z,993.11
2017-12-29T07:06:48.294Z,993.18
2017-12-29T07:08:41.180Z,993.16
2017-12-29T07:09:41.082Z,993.15
2017-12-29T07:11:34.034Z,993.16
2017-12-29T07:12:33.940Z,993.13
2017-12-29T07:14:26.820Z,993.16
2017-12-29T07:15:26.787Z,993.19
2017-12-29T07:17:19.704Z,993.25
2017-12-29T07:18:19.637Z,993.22
2017-12-29T07:20:12.514Z,993.20
2017-12-29T07:21:12.488Z,993.08
2017-12-29T07:23:05.439Z,993.07
2017-12-29T07:24:05.339Z,993.07
2017-12-29T07:25:58.218Z,993.07
2017-12-29T07:26:58.204Z,993.04
2017-12-29T07:28:51.053Z,992.88
2017-12-29T07:29:50.987Z,992.93
2017-12-29T07:31:44.089Z,992.86
2017-12-29T07:32:45.076Z,992.89
2017-12-29T07:34:36.911Z,993.00
2017-12-29T07:35:36.843Z,993.02
2017-12-29T07:37:29.791Z,993.01
2017-12-29T07:38:29.692Z,993.02
2017-12-29T07:40:22.613Z,992.98
2017-12-29T07:41:22.541Z,992.98
2017-12-29T07:43:15.426Z,992.96
2017-12-29T07:44:15.393Z,992.97
2017-12-29T07:46:08.340Z,992.98
2017-12-29T07:47:08.247Z,992.91
2017-12-29T07:49:01.128Z,992.91
2017-12-29T07:50:01.097Z,992.91
2017-12-29T07:51:54.006Z,992.87
2017-12-29T07:52:53.947Z,992.87
2017-12-29T07:54:46.825Z,992.83
2017-12-29T07:55:46.794Z,992.84
2017-12-29T07:57:39.704Z,992.87
2017-12-29T07:58:39.705Z,992.81
2017-12-29T08:00:32.523Z,992.78
2017-12-29T08:01:32.498Z,992.71
2017-12-29T08:03:25.403Z,992.72
2017-12-29T08:04:25.413Z,992.72
2017-12-29T08:06:18.224Z,992.68
2017-12-29T08:07:18.196Z,992.68
2017-12-29T08:09:11.118Z,992.69
2017-12-29T08:10:11.050Z,992.75
2017-12-29T08:12:04.001Z,992.71
2017-12-29T08:13:03.897Z,992.70
2017-12-29T08:14:56.843Z,992.66
2017-12-29T08:15:56.750Z,992.68
2017-12-29T08:17:49.635Z,992.58
2017-12-29T08:18:49.600Z,992.65
2017-12-29T08:20:42.507Z,992.66
2017-12-29T08:21:42.454Z,992.64
2017-12-29T08:23:35.394Z,992.65
2017-12-29T08:24:35.302Z,992.62
2017-12-29T08:26:28.244Z,992.67
2017-12-29T08:27:28.159Z,992.63
2017-12-29T08:29:21.127Z,992.68
2017-12-29T08:30:21.003Z,992.66
2017-12-29T08:32:13.908Z,992.60
2017-12-29T08:33:13.912Z,992.69
2017-12-29T08:35:06.796Z,992.70
2017-12-29T08:36:06.704Z,992.71
2017-12-29T08:37:59.648Z,992.73
2017-12-29T08:38:59.555Z,992.69
2017-12-29T08:40:52.498Z,992.67
2017-12-29T08:41:52.401Z,992.66
2017-12-29T08:43:45.353Z,992.66
2017-12-29T08:44:45.253Z,992.67
2017-12-29T08:46:38.201Z,992.63
2017-12-29T08:47:38.107Z,992.67
2017-12-29T08:49:31.013Z,992.62
2017-12-29T08:50:30.960Z,992.65
2017-12-29T08:52:23.841Z,992.64
2017-12-29T08:53:23.802Z,992.63
2017-12-29T08:55:16.708Z,992.57
2017-12-29T08:56:16.657Z,992.60
2017-12-29T08:58:09.598Z,992.59
2017-12-29T08:59:09.511Z,992.59
2017-12-29T09:01:02.969Z,992.49
2017-12-29T09:02:02.872Z,992.55
2017-12-29T09:03:55.756Z,992.57
2017-12-29T09:04:55.716Z,992.59
2017-12-29T09:06:48.646Z,992.58
2017-12-29T09:07:48.566Z,992.51
2017-12-29T09:09:41.517Z,992.56
2017-12-29T09:10:41.422Z,992.49
2017-12-29T09:12:35.389Z,992.45
2017-12-29T09:13:34.233Z,992.45
2017-12-29T09:15:27.152Z,992.42
2017-12-29T09:16:27.179Z,992.33
2017-12-29T09:18:20.017Z,992.27
2017-12-29T09:19:20.029Z,992.28
2017-12-29T09:21:12.918Z,992.25
2017-12-29T09:22:12.823Z,992.20
2017-12-29T09:24:05.771Z,992.10
2017-12-29T09:25:05.674Z,992.12
2017-12-29T09:26:58.590Z,992.03
2017-12-29T09:27:58.525Z,992.00
2017-12-29T09:29:51.404Z,991.98
2017-12-29T09:30:51.377Z,991.99
2017-12-29T09:32:44.281Z,991.98
2017-12-29T09:33:44.222Z,991.99
2017-12-29T09:35:37.138Z,991.96
2017-12-29T09:36:37.073Z,992.00
2017-12-29T09:38:29.980Z,992.00
2017-12-29T09:39:29.931Z,992.01
2017-12-29T09:41:22.787Z,991.94
2017-12-29T09:42:22.744Z,991.85
2017-12-29T09:44:15.612Z,991.90
2017-12-29T09:45:15.582Z,991.89
2017-12-29T09:47:08.419Z,991.77
2017-12-29T09:48:08.431Z,991.84
2017-12-29T09:50:01.272Z,991.68
2017-12-29T09:51:01.224Z,991.63
2017-12-29T09:52:54.111Z,991.61
2017-12-29T09:53:54.038Z,991.64
2017-12-29T09:55:46.957Z,991.67
2017-12-29T09:56:46.925Z,991.65
2017-12-29T09:58:39.839Z,991.64
2017-12-29T09:59:39.770Z,991.68
2017-12-29T10:01:32.658Z,991.61
2017-12-29T10:02:32.627Z,991.57
2017-12-29T10:04:25.493Z,991.50
2017-12-29T10:05:25.433Z,991.55
2017-12-29T10:07:18.458Z,991.48
2017-12-29T10:08:18.489Z,991.46
2017-12-29T10:10:11.349Z,991.37
2017-12-29T10:11:11.282Z,991.40
2017-12-29T10:13:04.167Z,991.35
2017-12-29T10:14:04.130Z,991.40
2017-12-29T10:15:57.045Z,991.30
2017-12-29T10:16:56.983Z,991.26
2017-12-29T10:18:49.823Z,991.27
2017-12-29T10:19:49.789Z,991.26
2017-12-29T10:21:42.844Z,991.22
2017-12-29T10:22:43.867Z,991.17
2017-12-29T10:24:35.661Z,991.21
2017-12-29T10:25:35.638Z,991.22
2017-12-29T10:27:28.490Z,991.26
2017-12-29T10:28:28.433Z,991.30
2017-12-29T10:30:21.258Z,991.20
2017-12-29T10:31:21.235Z,991.14
2017-12-29T10:33:14.582Z,991.15
2017-12-29T10:34:14.510Z,991.19
2017-12-29T10:36:07.357Z,991.09
2017-12-29T10:37:07.315Z,991.13
2017-12-29T10:39:00.357Z,991.11
2017-12-29T10:40:00.300Z,991.18
2017-12-29T10:41:53.248Z,991.05
2017-12-29T10:42:53.155Z,991.05
2017-12-29T10:44:46.105Z,991.09
2017-12-29T10:45:46.001Z,990.91
2017-12-29T10:47:38.950Z,991.09
2017-12-29T10:48:38.845Z,991.03
2017-12-29T10:50:31.798Z,990.97
2017-12-29T10:51:31.701Z,991.01
2017-12-29T10:53:24.582Z,990.98
2017-12-29T10:54:24.611Z,990.99
2017-12-29T10:56:21.491Z,990.92
2017-12-29T10:57:17.443Z,990.98
2017-12-29T10:59:10.859Z,990.97
2017-12-29T11:00:10.766Z,990.93
2017-12-29T11:02:04.180Z,991.00
2017-12-29T11:03:04.131Z,990.89
2017-12-29T11:04:57.012Z,990.83
2017-12-29T11:05:56.989Z,990.82
2017-12-29T11:07:49.919Z,990.76
2017-12-29T11:08:49.832Z,990.73
2017-12-29T11:10:42.770Z,990.71
2017-12-29T11:11:42.694Z,990.72
2017-12-29T11:13:35.635Z,990.66
2017-12-29T11:14:35.529Z,990.66
2017-12-29T11:16:28.429Z,990.56
2017-12-29T11:17:28.437Z,990.50
2017-12-29T11:19:21.282Z,990.51
2017-12-29T11:20:21.231Z,990.34
2017-12-29T11:22:14.175Z,990.35
2017-12-29T11:23:14.076Z,990.33
2017-12-29T11:25:07.030Z,990.32
2017-12-29T11:26:06.930Z,990.10
2017-12-29T11:27:59.819Z,990.22
2017-12-29T11:28:59.779Z,990.24
2017-12-29T11:30:52.688Z,990.04
2017-12-29T11:31:52.627Z,990.11
2017-12-29T11:33:45.578Z,990.16
2017-12-29T11:34:45.492Z,990.08
2017-12-29T11:36:38.426Z,990.02
2017-12-29T11:37:38.332Z,990.03
2017-12-29T11:39:31.278Z,989.99
2017-12-29T11:40:31.186Z,989.98
2017-12-29T11:42:24.097Z,989.93
2017-12-29T11:43:24.031Z,989.88
2017-12-29T11:45:16.913Z,989.90
2017-12-29T11:46:16.892Z,989.80
2017-12-29T11:48:09.831Z,989.77
2017-12-29T11:49:09.735Z,989.67
2017-12-29T11:51:02.613Z,989.77
2017-12-29T11:52:02.585Z,989.79
2017-12-29T11:53:55.493Z,989.65
2017-12-29T11:54:55.444Z,989.68
2017-12-29T11:56:48.322Z,989.66
2017-12-29T11:57:48.286Z,989.77
2017-12-29T11:59:41.200Z,989.70
2017-12-29T12:00:42.033Z,989.73
2017-12-29T12:02:35.163Z,989.72
2017-12-29T12:03:33.987Z,989.53
2017-12-29T12:05:26.938Z,989.51
2017-12-29T12:06:26.835Z,989.51
2017-12-29T12:08:19.780Z,989.46
2017-12-29T12:09:19.744Z,989.39
2017-12-29T12:11:12.635Z,989.35
2017-12-29T12:12:12.536Z,989.35
2017-12-29T12:14:05.369Z,989.26
2017-12-29T12:15:05.341Z,989.28
2017-12-29T12:16:58.538Z,989.15
2017-12-29T12:17:58.371Z,989.13
2017-12-29T12:19:51.223Z,989.17
2017-12-29T12:20:51.191Z,989.09
2017-12-29T12:22:44.145Z,989.04
2017-12-29T12:23:44.040Z,989.07
2017-12-29T12:25:36.988Z,989.07
2017-12-29T12:26:36.890Z,989.05
2017-12-29T12:28:29.806Z,989.00
2017-12-29T12:29:29.740Z,988.98
2017-12-29T12:31:22.691Z,989.05
2017-12-29T12:32:22.594Z,988.99
2017-12-29T12:34:15.644Z,988.97
2017-12-29T12:35:15.445Z,988.97
2017-12-29T12:37:08.388Z,988.83
2017-12-29T12:38:08.293Z,988.79
2017-12-29T12:40:01.238Z,988.76
2017-12-29T12:41:01.153Z,988.76
2017-12-29T12:42:54.029Z,988.59
2017-12-29T12:43:53.997Z,988.59
2017-12-29T12:45:46.912Z,988.56
2017-12-29T12:46:46.857Z,988.47
2017-12-29T12:48:39.727Z,988.53
2017-12-29T12:49:39.700Z,988.47
2017-12-29T12:51:32.619Z,988.36
2017-12-29T12:52:32.558Z,988.38
2017-12-29T12:54:25.494Z,988.34
2017-12-29T12:55:25.399Z,988.32
2017-12-29T12:57:18.317Z,988.24
2017-12-29T12:58:18.252Z,988.19
2017-12-29T13:00:11.141Z,988.26
2017-12-29T13:01:11.156Z,988.27
2017-12-29T13:03:04.042Z,988.25
2017-12-29T13:04:04.191Z,988.14
2017-12-29T13:05:56.895Z,988.15
2017-12-29T13:06:56.802Z,988.14
2017-12-29T13:08:49.720Z,988.04
2017-12-29T13:09:49.649Z,988.00
2017-12-29T13:11:42.603Z,987.97
2017-12-29T13:12:42.511Z,987.99
2017-12-29T13:14:35.416Z,987.86
2017-12-29T13:15:35.431Z,987.80
2017-12-29T13:17:28.328Z,987.93
2017-12-29T13:18:28.231Z,987.89
2017-12-29T13:20:21.214Z,987.83
2017-12-29T13:21:21.212Z,987.87
2017-12-29T13:23:14.103Z,987.85
2017-12-29T13:24:14.024Z,987.74
2017-12-29T13:26:06.953Z,987.72
2017-12-29T13:27:06.858Z,987.70
2017-12-29T13:28:59.796Z,987.67
2017-12-29T13:29:59.738Z,987.61
2017-12-29T13:31:52.607Z,987.51
2017-12-29T13:32:52.615Z,987.41
2017-12-29T13:34:45.433Z,987.34
2017-12-29T13:35:45.418Z,987.18
2017-12-29T13:37:38.324Z,987.19
2017-12-29T13:38:38.261Z,987.18
2017-12-29T13:40:31.674Z,987.09
2017-12-29T13:41:31.112Z,987.08
2017-12-29T13:43:24.022Z,986.87
2017-12-29T13:44:23.954Z,986.84
2017-12-29T13:46:17.375Z,986.80
2017-12-29T13:47:16.809Z,986.52
2017-12-29T13:49:09.726Z,986.59
2017-12-29T13:50:09.656Z,986.57
2017-12-29T13:52:02.541Z,986.45
2017-12-29T13:53:02.507Z,986.46
2017-12-29T13:54:55.424Z,986.27
2017-12-29T13:55:55.373Z,986.26
2017-12-29T13:57:48.242Z,986.31
2017-12-29T13:58:48.211Z,986.24
2017-12-29T14:00:41.154Z,986.26
2017-12-29T14:01:41.059Z,986.32
2017-12-29T14:03:33.938Z,986.15
2017-12-29T14:04:33.911Z,986.13
2017-12-29T14:06:26.857Z,986.22
2017-12-29T14:07:26.762Z,986.14
2017-12-29T14:09:19.642Z,986.14
2017-12-29T14:10:19.608Z,986.03
2017-12-29T14:12:12.565Z,985.93
2017-12-29T14:13:12.459Z,986.00
2017-12-29T14:15:05.337Z,985.99
2017-12-29T14:16:05.315Z,985.95
2017-12-29T14:17:58.259Z,985.82
2017-12-29T14:18:58.160Z,985.76
2017-12-29T14:20:51.080Z,985.80
2017-12-29T14:21:51.086Z,985.74
2017-12-29T14:23:43.929Z,985.61
2017-12-29T14:24:43.872Z,985.61
2017-12-29T14:26:36.747Z,985.66
2017-12-29T14:27:36.716Z,985.64
2017-12-29T14:29:29.629Z,985.59
2017-12-29T14:30:29.559Z,985.50
2017-12-29T14:32:22.447Z,985.43
2017-12-29T14:33:22.480Z,985.35
2017-12-29T14:35:15.326Z,985.37
2017-12-29T14:36:15.346Z,985.24
2017-12-29T14:38:08.144Z,985.26
2017-12-29T14:39:08.174Z,985.15
2017-12-29T14:41:01.038Z,984.96
2017-12-29T14:42:00.966Z,984.99
2017-12-29T14:43:53.847Z,984.85
2017-12-29T14:44:53.879Z,984.80
2017-12-29T14:46:46.772Z,984.76
2017-12-29T14:47:46.678Z,984.91
2017-12-29T14:49:39.553Z,984.90
2017-12-29T14:50:39.577Z,984.84
2017-12-29T14:52:32.447Z,984.68
2017-12-29T14:53:32.429Z,984.57
2017-12-29T14:55:25.337Z,984.54
2017-12-29T14:56:25.216Z,984.35
2017-12-29T14:58:18.677Z,984.20
2017-12-29T14:59:18.582Z,984.24
2017-12-29T15:01:11.464Z,984.29
2017-12-29T15:02:11.430Z,984.20
2017-12-29T15:04:04.349Z,984.30
2017-12-29T15:05:04.277Z,984.40
2017-12-29T15:06:57.228Z,984.34
2017-12-29T15:07:57.129Z,984.19
2017-12-29T15:09:50.040Z,984.18
2017-12-29T15:10:49.981Z,984.22
2017-12-29T15:12:42.934Z,984.25
2017-12-29T15:13:42.830Z,984.19
2017-12-29T15:15:35.745Z,984.10
2017-12-29T15:16:35.681Z,984.01
2017-12-29T15:18:28.569Z,984.17
2017-12-29T15:19:28.531Z,984.21
2017-12-29T15:21:21.450Z,984.12
2017-12-29T15:22:21.440Z,984.01
2017-12-29T15:24:14.332Z,983.96
2017-12-29T15:25:14.234Z,983.99
2017-12-29T15:27:07.696Z,983.91
2017-12-29T15:28:07.595Z,983.93
2017-12-29T15:30:00.479Z,983.89
2017-12-29T15:31:00.445Z,983.91
2017-12-29T15:32:53.367Z,983.84
2017-12-29T15:33:53.306Z,983.85
2017-12-29T15:35:46.244Z,983.69
2017-12-29T15:36:46.162Z,983.82
2017-12-29T15:38:39.125Z,984.01
2017-12-29T15:39:38.998Z,983.75
2017-12-29T15:41:31.949Z,983.70
2017-12-29T15:42:31.853Z,983.66
2017-12-29T15:44:24.798Z,983.69
2017-12-29T15:45:24.699Z,983.84
2017-12-29T15:47:17.646Z,983.46
2017-12-29T15:48:17.561Z,983.68
2017-12-29T15:50:10.501Z,983.74
2017-12-29T15:51:10.402Z,983.66
2017-12-29T15:53:03.285Z,983.75
2017-12-29T15:54:03.451Z,983.68
2017-12-29T15:55:56.165Z,983.60
2017-12-29T15:56:56.102Z,983.63
2017-12-29T15:58:49.050Z,983.66
2017-12-29T15:59:48.947Z,983.66
2017-12-29T16:01:41.869Z,983.47
2017-12-29T16:02:43.911Z,983.57
2017-12-29T16:04:34.684Z,983.41
2017-12-29T16:05:34.664Z,983.44
2017-12-29T16:07:27.599Z,983.45
2017-12-29T16:08:27.515Z,983.46
2017-12-29T16:10:20.450Z,983.26
2017-12-29T16:11:20.364Z,983.38
2017-12-29T16:13:13.266Z,983.35
2017-12-29T16:14:13.263Z,983.24
2017-12-29T16:16:06.088Z,983.30
2017-12-29T16:17:06.052Z,983.20
2017-12-29T16:18:58.972Z,983.21
2017-12-29T16:19:58.966Z,983.24
2017-12-29T16:21:51.856Z,983.21
2017-12-29T16:22:51.764Z,983.27
2017-12-29T16:24:44.675Z,983.25
2017-12-29T16:25:44.666Z,983.10
2017-12-29T16:27:37.556Z,983.16
2017-12-29T16:28:37.460Z,983.27
2017-12-29T16:30:30.406Z,983.32
2017-12-29T16:31:30.318Z,983.32
2017-12-29T16:33:23.185Z,983.13
2017-12-29T16:34:23.217Z,983.20
2017-12-29T16:36:16.080Z,983.25
2017-12-29T16:37:16.066Z,983.15
2017-12-29T16:39:08.899Z,983.05
2017-12-29T16:40:08.882Z,983.16
2017-12-29T16:42:01.912Z,983.04
2017-12-29T16:43:01.720Z,982.89
2017-12-29T16:44:54.692Z,982.96
2017-12-29T16:45:54.659Z,982.86
2017-12-29T16:47:47.679Z,982.93
2017-12-29T16:48:47.608Z,982.98
2017-12-29T16:50:40.771Z,982.91
2017-12-29T16:51:40.566Z,982.93
2017-12-29T16:53:33.722Z,982.99
2017-12-29T16:54:33.514Z,982.91
2017-12-29T16:56:26.679Z,983.04
2017-12-29T16:57:26.463Z,982.99
2017-12-29T16:59:19.489Z,982.91
2017-12-29T17:00:19.588Z,983.02
2017-12-29T17:02:12.410Z,983.04
2017-12-29T17:03:12.380Z,982.99
2017-12-29T17:05:05.527Z,983.10
2017-12-29T17:06:05.330Z,983.07
2017-12-29T17:07:58.231Z,983.04
2017-12-29T17:09:02.765Z,982.91
2017-12-29T17:10:51.125Z,983.11
2017-12-29T17:13:04.003Z,982.88
2017-12-29T17:14:03.971Z,982.92
2017-12-29T17:15:56.996Z,983.01
2017-12-29T17:16:56.822Z,983.09
2017-12-29T17:18:50.281Z,983.01
2017-12-29T17:19:50.191Z,983.01
2017-12-29T17:21:43.128Z,983.16
2017-12-29T17:22:43.042Z,983.22
2017-12-29T17:24:35.918Z,983.24
2017-12-29T17:25:35.949Z,983.18
2017-12-29T17:27:29.320Z,983.23
2017-12-29T17:28:29.258Z,983.19
2017-12-29T17:30:22.144Z,983.13
2017-12-29T17:31:22.164Z,983.19
2017-12-29T17:33:15.056Z,983.07
2017-12-29T17:34:14.958Z,983.27
2017-12-29T17:36:07.955Z,983.20
2017-12-29T17:37:07.809Z,983.05
2017-12-29T17:39:01.277Z,983.09
2017-12-29T17:40:01.248Z,983.13
2017-12-29T17:41:54.061Z,983.09
2017-12-29T17:42:54.082Z,983.07
2017-12-29T17:44:46.943Z,983.06
2017-12-29T17:45:46.880Z,983.03
2017-12-29T17:47:39.824Z,983.08
2017-12-29T17:48:39.727Z,983.05
2017-12-29T17:50:32.681Z,983.10
2017-12-29T17:51:32.591Z,983.07
2017-12-29T17:53:25.534Z,983.14
2017-12-29T17:54:25.431Z,983.12
2017-12-29T17:56:18.380Z,983.10
2017-12-29T17:57:18.283Z,983.11
2017-12-29T17:59:11.230Z,983.11
2017-12-29T18:00:11.141Z,983.13
2017-12-29T18:02:04.083Z,983.23
2017-12-29T18:03:03.988Z,983.26
2017-12-29T18:04:56.873Z,983.43
2017-12-29T18:05:56.904Z,983.49
2017-12-29T18:07:49.762Z,983.51
2017-12-29T18:08:49.757Z,983.48
2017-12-29T18:10:42.645Z,983.41
2017-12-29T18:11:42.556Z,983.36
2017-12-29T18:13:35.461Z,983.22
2017-12-29T18:14:35.406Z,983.26
2017-12-29T18:16:28.351Z,983.54
2017-12-29T18:17:28.257Z,983.68
2017-12-29T18:19:21.206Z,983.59
2017-12-29T18:20:21.110Z,983.62
2017-12-29T18:22:14.049Z,983.37
2017-12-29T18:23:13.966Z,983.29
2017-12-29T18:25:06.944Z,983.38
2017-12-29T18:26:06.812Z,983.36
2017-12-29T18:28:00.714Z,983.64
2017-12-29T18:29:00.742Z,983.63
2017-12-29T18:30:53.629Z,983.70
2017-12-29T18:31:53.570Z,983.68
2017-12-29T18:33:46.504Z,983.67
2017-12-29T18:34:46.400Z,983.72
2017-12-29T18:36:39.300Z,983.73
2017-12-29T18:37:39.336Z,983.60
2017-12-29T18:39:32.136Z,983.68
2017-12-29T18:40:32.112Z,983.61
2017-12-29T18:42:25.014Z,983.76
2017-12-29T18:43:24.948Z,983.80
2017-12-29T18:45:17.832Z,983.74
2017-12-29T18:46:17.856Z,983.77
2017-12-29T18:48:10.726Z,983.77
2017-12-29T18:49:10.655Z,983.82
2017-12-29T18:51:03.532Z,983.93
2017-12-29T18:52:03.508Z,983.86
2017-12-29T18:53:56.410Z,983.86
2017-12-29T18:54:56.402Z,983.87
2017-12-29T18:56:49.362Z,983.92
2017-12-29T18:57:49.216Z,983.88
2017-12-29T18:59:42.128Z,983.91
2017-12-29T19:00:42.136Z,983.90
2017-12-29T19:02:36.033Z,983.96
2017-12-29T19:03:34.915Z,983.94
2017-12-29T19:05:27.833Z,984.05
2017-12-29T19:06:27.775Z,984.12
2017-12-29T19:08:20.650Z,984.19
2017-12-29T19:09:20.611Z,984.16
2017-12-29T19:11:13.528Z,984.20
2017-12-29T19:12:13.492Z,984.18
2017-12-29T19:14:06.354Z,984.19
2017-12-29T19:15:06.328Z,984.24
2017-12-29T19:16:59.294Z,984.20
2017-12-29T19:17:59.170Z,984.21
2017-12-29T19:19:52.059Z,984.19
2017-12-29T19:20:52.024Z,984.23
2017-12-29T19:22:44.949Z,984.32
2017-12-29T19:23:44.881Z,984.39
2017-12-29T19:25:37.823Z,984.36
2017-12-29T19:26:37.729Z,984.29
2017-12-29T19:28:30.677Z,984.38
2017-12-29T19:29:30.582Z,984.33
2017-12-29T19:31:23.535Z,984.30
2017-12-29T19:32:23.436Z,984.37
2017-12-29T19:34:16.354Z,984.34
2017-12-29T19:35:16.294Z,984.32
2017-12-29T19:37:09.240Z,984.34
2017-12-29T19:38:09.138Z,984.41
2017-12-29T19:40:02.082Z,984.45
2017-12-29T19:41:01.996Z,984.48
2017-12-29T19:42:54.937Z,984.51
2017-12-29T19:43:54.841Z,984.46
2017-12-29T19:45:47.845Z,984.58
2017-12-29T19:46:47.951Z,984.59
2017-12-29T19:48:40.939Z,984.49
2017-12-29T19:49:40.735Z,984.57
2017-12-29T19:51:33.662Z,984.65
2017-12-29T19:52:33.766Z,984.67
2017-12-29T19:54:26.644Z,984.62
2017-12-29T19:55:26.451Z,984.63
2017-12-29T19:57:19.456Z,984.70
2017-12-29T19:58:19.403Z,984.76
2017-12-29T20:00:12.407Z,984.77
2017-12-29T20:01:12.339Z,984.82
2017-12-29T20:03:06.438Z,984.82
2017-12-29T20:04:05.296Z,984.80
2017-12-29T20:05:58.279Z,984.86
2017-12-29T20:06:58.248Z,984.84
2017-12-29T20:08:51.314Z,984.87
2017-12-29T20:09:51.201Z,984.90
2017-12-29T20:11:44.183Z,984.92
2017-12-29T20:12:44.318Z,984.97
2017-12-29T20:14:37.210Z,984.99
2017-12-29T20:15:37.111Z,985.04
2017-12-29T20:17:30.087Z,985.10
2017-12-29T20:18:30.063Z,985.08
2017-12-29T20:20:23.071Z,985.09
2017-12-29T20:21:23.010Z,985.19
2017-12-29T20:23:16.001Z,985.28
2017-12-29T20:24:16.130Z,985.23
2017-12-29T20:26:09.129Z,985.43
2017-12-29T20:27:08.921Z,985.37
2017-12-29T20:29:01.897Z,985.43
2017-12-29T20:30:01.876Z,985.41
2017-12-29T20:31:54.888Z,985.33
2017-12-29T20:32:54.817Z,985.36
2017-12-29T20:34:48.019Z,985.39
2017-12-29T20:35:47.773Z,985.31
2017-12-29T20:37:40.790Z,985.32
2017-12-29T20:38:40.729Z,985.36
2017-12-29T20:40:33.712Z,985.38
2017-12-29T20:41:33.683Z,985.35
2017-12-29T20:43:26.839Z,985.49
2017-12-29T20:44:26.634Z,985.48
2017-12-29T20:46:19.620Z,985.54
2017-12-29T20:47:19.587Z,985.62
2017-12-29T20:49:12.630Z,985.57
2017-12-29T20:50:12.548Z,985.65
2017-12-29T20:52:05.523Z,985.60
2017-12-29T20:53:05.496Z,985.66
2017-12-29T20:54:58.650Z,985.69
2017-12-29T20:55:58.449Z,985.65
2017-12-29T20:57:51.501Z,985.69
2017-12-29T20:58:51.406Z,985.69
2017-12-29T21:00:44.556Z,985.78
2017-12-29T21:01:44.355Z,985.84
2017-12-29T21:03:37.340Z,985.81
2017-12-29T21:04:37.305Z,985.70
2017-12-29T21:06:30.462Z,985.74
2017-12-29T21:07:30.255Z,985.75
2017-12-29T21:09:23.316Z,985.83
2017-12-29T21:10:23.238Z,985.78
2017-12-29T21:12:16.365Z,985.80
2017-12-29T21:13:16.166Z,985.80
2017-12-29T21:15:09.131Z,985.88
2017-12-29T21:16:09.021Z,985.90
2017-12-29T21:18:02.025Z,985.96
2017-12-29T21:19:01.964Z,985.95
2017-12-29T21:20:54.915Z,986.04
2017-12-29T21:21:54.830Z,986.07
2017-12-29T21:23:47.971Z,986.11
2017-12-29T21:24:47.776Z,986.15
2017-12-29T21:26:40.653Z,986.28
2017-12-29T21:27:40.686Z,986.25
2017-12-29T21:29:33.677Z,986.22
2017-12-29T21:30:33.481Z,986.23
2017-12-29T21:32:26.426Z,986.25
2017-12-29T21:33:26.322Z,986.28
2017-12-29T21:35:19.271Z,986.27
2017-12-29T21:36:19.339Z,986.33
2017-12-29T21:38:12.057Z,986.32
2017-12-29T21:39:12.088Z,986.39
2017-12-29T21:41:05.075Z,986.32
2017-12-29T21:42:04.879Z,986.42
2017-12-29T21:43:57.760Z,986.38
2017-12-29T21:44:57.789Z,986.39
2017-12-29T21:46:50.630Z,986.44
2017-12-29T21:47:50.576Z,986.39
2017-12-29T21:49:43.539Z,986.47
2017-12-29T21:50:43.428Z,986.52
2017-12-29T21:52:36.349Z,986.54
2017-12-29T21:53:36.277Z,986.61
2017-12-29T21:55:29.225Z,986.61
2017-12-29T21:56:29.143Z,986.62
2017-12-29T21:58:22.041Z,986.60
2017-12-29T21:59:21.983Z,986.61
2017-12-29T22:01:14.863Z,986.74
2017-12-29T22:02:14.832Z,986.64
2017-12-29T22:04:07.847Z,986.70
2017-12-29T22:05:07.780Z,986.78
2017-12-29T22:07:00.837Z,986.80
2017-12-29T22:08:00.728Z,986.82
2017-12-29T22:09:53.750Z,986.91
2017-12-29T22:10:53.688Z,986.87
2017-12-29T22:12:46.668Z,986.88
2017-12-29T22:13:46.635Z,986.98
2017-12-29T22:15:39.796Z,986.99
2017-12-29T22:16:39.592Z,987.01
2017-12-29T22:18:32.573Z,987.13
2017-12-29T22:19:32.546Z,987.01
2017-12-29T22:21:25.714Z,987.05
2017-12-29T22:22:25.496Z,987.02
2017-12-29T22:24:18.655Z,987.17
2017-12-29T22:25:18.447Z,987.05
2017-12-29T22:27:11.602Z,987.14
2017-12-29T22:28:11.399Z,987.13
2017-12-29T22:30:04.393Z,987.19
2017-12-29T22:31:04.376Z,987.20
2017-12-29T22:32:57.368Z,987.24
2017-12-29T22:33:57.473Z,987.34
2017-12-29T22:35:50.478Z,987.36
2017-12-29T22:36:50.261Z,987.33
2017-12-29T22:38:43.416Z,987.28
2017-12-29T22:39:43.210Z,987.32
2017-12-29T22:41:36.381Z,987.35
2017-12-29T22:42:36.166Z,987.39
2017-12-29T22:44:29.324Z,987.45
2017-12-29T22:45:29.125Z,987.40
2017-12-29T22:47:22.278Z,987.60
2017-12-29T22:48:22.067Z,987.52
2017-12-29T22:50:15.229Z,987.53
2017-12-29T22:51:15.028Z,987.61
2017-12-29T22:53:08.012Z,987.63
2017-12-29T22:54:07.975Z,987.53
2017-12-29T22:56:01.129Z,987.53
2017-12-29T22:57:00.931Z,987.57
2017-12-29T22:58:53.919Z,987.59
2017-12-29T22:59:53.886Z,987.57
2017-12-29T23:01:47.037Z,987.68
2017-12-29T23:02:46.853Z,987.69
2017-12-29T23:04:39.816Z,987.75
2017-12-29T23:05:39.791Z,987.72
2017-12-29T23:07:33.355Z,987.71
2017-12-29T23:08:33.256Z,987.76
2017-12-29T23:10:26.241Z,987.72
2017-12-29T23:11:26.371Z,987.70
2017-12-29T23:13:19.226Z,987.76
2017-12-29T23:14:19.324Z,987.74
2017-12-29T23:16:12.140Z,987.73
2017-12-29T23:17:12.278Z,987.83
2017-12-29T23:19:05.134Z,987.74
2017-12-29T23:20:05.232Z,987.77
2017-12-29T23:21:58.055Z,987.89
2017-12-29T23:22:58.185Z,987.90
2017-12-29T23:24:51.173Z,987.86
2017-12-29T23:25:50.972Z,987.87
2017-12-29T23:27:44.126Z,987.89
2017-12-29T23:28:43.926Z,987.85
2017-12-29T23:30:37.082Z,987.98
2017-12-29T23:31:36.872Z,988.08
2017-12-29T23:33:30.029Z,988.05
2017-12-29T23:34:29.825Z,988.12
2017-12-29T23:36:22.986Z,988.03
2017-12-29T23:37:22.786Z,988.04
2017-12-29T23:39:15.939Z,988.09
2017-12-29T23:40:15.733Z,988.25
2017-12-29T23:42:08.750Z,988.18
2017-12-29T23:43:08.688Z,988.14
2017-12-29T23:45:01.696Z,988.20
2017-12-29T23:46:01.639Z,988.22
2017-12-29T23:47:54.792Z,988.25
2017-12-29T23:48:54.591Z,988.28
2017-12-29T23:50:47.655Z,988.31
2017-12-29T23:51:47.545Z,988.32
2017-12-29T23:53:40.565Z,988.30
2017-12-29T23:54:40.503Z,988.39
2017-12-29T23:56:33.550Z,988.37
2017-12-29T23:57:33.457Z,988.41
2017-12-29T23:59:26.458Z,988.50
